sensor_id;sensor_type;location;lat;lon;timestamp;P1;durP1;ratioP1;P2;durP2;ratioP2
43998;SDS011;51319;52.162;5.302;2022-09-01T00:02:29;12.70;;;2.23;;
43998;SDS011;51319;52.162;5.302;2022-09-01T00:04:55;4.53;;;2.17;;
43998;SDS011;51319;52.162;5.302;2022-09-01T00:07:27;8.25;;;2.55;;
43998;SDS011;51319;52.162;5.302;2022-09-01T00:09:57;8.20;;;1.90;;
43998;SDS011;51319;52.162;5.302;2022-09-01T00:12:24;5.35;;;2.10;;
43998;SDS011;51319;52.162;5.302;2022-09-01T00:14:52;7.63;;;2.28;;
43998;SDS011;51319;52.162;5.302;2022-09-01T00:17:18;5.13;;;2.00;;
43998;SDS011;51319;52.162;5.302;2022-09-01T00:19:44;8.40;;;2.03;;
43998;SDS011;51319;52.162;5.302;2022-09-01T00:22:11;7.75;;;1.85;;
43998;SDS011;51319;52.162;5.302;2022-09-01T00:24:37;7.43;;;2.30;;
43998;SDS011;51319;52.162;5.302;2022-09-01T00:27:03;4.45;;;2.35;;
43998;SDS011;51319;52.162;5.302;2022-09-01T00:29:30;3.45;;;2.30;;
43998;SDS011;51319;52.162;5.302;2022-09-01T00:31:56;5.40;;;2.03;;
43998;SDS011;51319;52.162;5.302;2022-09-01T00:34:22;11.93;;;2.00;;
43998;SDS011;51319;52.162;5.302;2022-09-01T00:36:48;7.28;;;2.53;;
43998;SDS011;51319;52.162;5.302;2022-09-01T00:39:15;4.32;;;2.10;;
43998;SDS011;51319;52.162;5.302;2022-09-01T00:41:41;5.60;;;2.45;;
43998;SDS011;51319;52.162;5.302;2022-09-01T00:44:10;6.10;;;2.78;;
43998;SDS011;51319;52.162;5.302;2022-09-01T00:46:45;7.10;;;2.20;;
43998;SDS011;51319;52.162;5.302;2022-09-01T00:49:24;8.68;;;2.30;;
43998;SDS011;51319;52.162;5.302;2022-09-01T00:52:04;6.43;;;2.83;;
43998;SDS011;51319;52.162;5.302;2022-09-01T00:54:36;4.28;;;2.45;;
43998;SDS011;51319;52.162;5.302;2022-09-01T00:59:33;7.20;;;2.08;;
43998;SDS011;51319;52.162;5.302;2022-09-01T01:02:03;12.45;;;2.20;;
43998;SDS011;51319;52.162;5.302;2022-09-01T01:04:29;6.95;;;2.28;;
43998;SDS011;51319;52.162;5.302;2022-09-01T01:06:56;8.70;;;2.70;;
43998;SDS011;51319;52.162;5.302;2022-09-01T01:09:28;8.50;;;2.25;;
43998;SDS011;51319;52.162;5.302;2022-09-01T01:11:58;8.55;;;2.35;;
43998;SDS011;51319;52.162;5.302;2022-09-01T01:14:26;8.35;;;2.47;;
43998;SDS011;51319;52.162;5.302;2022-09-01T01:16:57;3.75;;;2.72;;
43998;SDS011;51319;52.162;5.302;2022-09-01T01:22:25;9.30;;;2.33;;
43998;SDS011;51319;52.162;5.302;2022-09-01T01:25:29;6.78;;;2.80;;
43998;SDS011;51319;52.162;5.302;2022-09-01T01:30:43;5.38;;;2.28;;
43998;SDS011;51319;52.162;5.302;2022-09-01T01:33:21;5.45;;;2.72;;
43998;SDS011;51319;52.162;5.302;2022-09-01T01:35:51;4.88;;;2.40;;
43998;SDS011;51319;52.162;5.302;2022-09-01T01:38:22;3.30;;;2.35;;
43998;SDS011;51319;52.162;5.302;2022-09-01T01:40:49;10.45;;;2.72;;
43998;SDS011;51319;52.162;5.302;2022-09-01T01:43:18;4.80;;;2.70;;
43998;SDS011;51319;52.162;5.302;2022-09-01T01:45:51;14.48;;;2.63;;
43998;SDS011;51319;52.162;5.302;2022-09-01T01:48:20;8.55;;;2.67;;
43998;SDS011;51319;52.162;5.302;2022-09-01T01:50:48;8.02;;;2.90;;
43998;SDS011;51319;52.162;5.302;2022-09-01T01:53:16;6.07;;;2.53;;
43998;SDS011;51319;52.162;5.302;2022-09-01T01:55:44;7.32;;;2.78;;
43998;SDS011;51319;52.162;5.302;2022-09-01T01:58:17;4.93;;;2.63;;
43998;SDS011;51319;52.162;5.302;2022-09-01T02:00:46;4.22;;;2.35;;
43998;SDS011;51319;52.162;5.302;2022-09-01T02:03:14;5.07;;;2.53;;
43998;SDS011;51319;52.162;5.302;2022-09-01T02:05:47;6.15;;;2.70;;
43998;SDS011;51319;52.162;5.302;2022-09-01T02:08:15;5.03;;;2.60;;
43998;SDS011;51319;52.162;5.302;2022-09-01T02:10:46;4.80;;;2.25;;
43998;SDS011;51319;52.162;5.302;2022-09-01T02:13:17;3.22;;;2.85;;
43998;SDS011;51319;52.162;5.302;2022-09-01T02:15:46;3.15;;;2.40;;
43998;SDS011;51319;52.162;5.302;2022-09-01T02:21:15;9.90;;;3.00;;
43998;SDS011;51319;52.162;5.302;2022-09-01T02:23:47;6.45;;;3.00;;
43998;SDS011;51319;52.162;5.302;2022-09-01T02:26:27;4.70;;;2.80;;
43998;SDS011;51319;52.162;5.302;2022-09-01T02:29:04;6.45;;;3.20;;
43998;SDS011;51319;52.162;5.302;2022-09-01T02:31:42;4.15;;;2.50;;
43998;SDS011;51319;52.162;5.302;2022-09-01T02:34:10;4.53;;;2.35;;
43998;SDS011;51319;52.162;5.302;2022-09-01T02:36:39;5.50;;;2.35;;
43998;SDS011;51319;52.162;5.302;2022-09-01T02:39:09;5.15;;;3.22;;
43998;SDS011;51319;52.162;5.302;2022-09-01T02:41:37;3.75;;;2.80;;
43998;SDS011;51319;52.162;5.302;2022-09-01T02:44:04;5.28;;;2.65;;
43998;SDS011;51319;52.162;5.302;2022-09-01T02:46:37;6.68;;;2.78;;
43998;SDS011;51319;52.162;5.302;2022-09-01T02:49:07;5.20;;;2.72;;
43998;SDS011;51319;52.162;5.302;2022-09-01T02:51:40;8.38;;;3.50;;
43998;SDS011;51319;52.162;5.302;2022-09-01T02:54:08;6.07;;;2.50;;
43998;SDS011;51319;52.162;5.302;2022-09-01T02:56:37;4.47;;;2.90;;
43998;SDS011;51319;52.162;5.302;2022-09-01T02:59:03;5.65;;;3.05;;
43998;SDS011;51319;52.162;5.302;2022-09-01T03:01:31;11.07;;;3.00;;
43998;SDS011;51319;52.162;5.302;2022-09-01T03:03:59;3.78;;;2.75;;
43998;SDS011;51319;52.162;5.302;2022-09-01T03:06:30;4.60;;;3.05;;
43998;SDS011;51319;52.162;5.302;2022-09-01T03:08:59;4.25;;;2.85;;
43998;SDS011;51319;52.162;5.302;2022-09-01T03:11:28;7.80;;;3.08;;
43998;SDS011;51319;52.162;5.302;2022-09-01T03:13:56;3.85;;;2.83;;
43998;SDS011;51319;52.162;5.302;2022-09-01T03:16:22;7.95;;;2.83;;
43998;SDS011;51319;52.162;5.302;2022-09-01T03:18:49;9.35;;;2.92;;
43998;SDS011;51319;52.162;5.302;2022-09-01T03:21:16;10.02;;;2.80;;
43998;SDS011;51319;52.162;5.302;2022-09-01T03:23:44;4.38;;;2.50;;
43998;SDS011;51319;52.162;5.302;2022-09-01T03:26:11;6.65;;;2.78;;
43998;SDS011;51319;52.162;5.302;2022-09-01T03:28:38;4.65;;;2.90;;
43998;SDS011;51319;52.162;5.302;2022-09-01T03:31:05;4.93;;;2.65;;
43998;SDS011;51319;52.162;5.302;2022-09-01T03:33:32;5.10;;;2.72;;
43998;SDS011;51319;52.162;5.302;2022-09-01T03:35:59;6.78;;;3.83;;
43998;SDS011;51319;52.162;5.302;2022-09-01T03:38:25;8.70;;;3.20;;
43998;SDS011;51319;52.162;5.302;2022-09-01T03:40:53;5.85;;;3.42;;
43998;SDS011;51319;52.162;5.302;2022-09-01T03:43:25;8.90;;;3.00;;
43998;SDS011;51319;52.162;5.302;2022-09-01T03:46:01;4.20;;;2.83;;
43998;SDS011;51319;52.162;5.302;2022-09-01T03:48:28;7.60;;;2.67;;
43998;SDS011;51319;52.162;5.302;2022-09-01T03:50:57;4.35;;;3.00;;
43998;SDS011;51319;52.162;5.302;2022-09-01T03:53:28;6.85;;;3.17;;
43998;SDS011;51319;52.162;5.302;2022-09-01T03:55:56;8.15;;;3.63;;
43998;SDS011;51319;52.162;5.302;2022-09-01T03:58:23;4.38;;;2.75;;
43998;SDS011;51319;52.162;5.302;2022-09-01T04:00:52;5.03;;;3.42;;
43998;SDS011;51319;52.162;5.302;2022-09-01T04:03:21;5.93;;;2.75;;
43998;SDS011;51319;52.162;5.302;2022-09-01T04:05:56;4.93;;;3.72;;
43998;SDS011;51319;52.162;5.302;2022-09-01T04:08:24;3.15;;;2.80;;
43998;SDS011;51319;52.162;5.302;2022-09-01T04:11:09;11.98;;;3.45;;
43998;SDS011;51319;52.162;5.302;2022-09-01T04:13:40;7.32;;;3.55;;
43998;SDS011;51319;52.162;5.302;2022-09-01T04:16:14;7.47;;;3.22;;
43998;SDS011;51319;52.162;5.302;2022-09-01T04:19:03;5.20;;;3.53;;
43998;SDS011;51319;52.162;5.302;2022-09-01T04:21:41;7.60;;;3.53;;
43998;SDS011;51319;52.162;5.302;2022-09-01T04:24:08;8.57;;;2.90;;
43998;SDS011;51319;52.162;5.302;2022-09-01T04:26:35;7.10;;;3.50;;
43998;SDS011;51319;52.162;5.302;2022-09-01T04:29:02;4.88;;;2.90;;
43998;SDS011;51319;52.162;5.302;2022-09-01T04:31:29;9.85;;;3.97;;
43998;SDS011;51319;52.162;5.302;2022-09-01T04:33:56;5.22;;;3.25;;
43998;SDS011;51319;52.162;5.302;2022-09-01T04:36:27;6.45;;;3.40;;
43998;SDS011;51319;52.162;5.302;2022-09-01T04:38:59;7.47;;;3.67;;
43998;SDS011;51319;52.162;5.302;2022-09-01T04:41:28;6.35;;;4.03;;
43998;SDS011;51319;52.162;5.302;2022-09-01T04:43:57;4.97;;;3.55;;
43998;SDS011;51319;52.162;5.302;2022-09-01T04:46:30;7.32;;;3.42;;
43998;SDS011;51319;52.162;5.302;2022-09-01T04:49:00;5.10;;;3.70;;
43998;SDS011;51319;52.162;5.302;2022-09-01T04:51:39;5.97;;;3.50;;
43998;SDS011;51319;52.162;5.302;2022-09-01T04:54:06;9.27;;;3.00;;
43998;SDS011;51319;52.162;5.302;2022-09-01T04:56:42;6.65;;;3.78;;
43998;SDS011;51319;52.162;5.302;2022-09-01T04:59:11;5.63;;;3.70;;
43998;SDS011;51319;52.162;5.302;2022-09-01T05:01:39;7.20;;;4.03;;
43998;SDS011;51319;52.162;5.302;2022-09-01T05:04:10;12.00;;;3.55;;
43998;SDS011;51319;52.162;5.302;2022-09-01T05:06:40;8.00;;;3.35;;
43998;SDS011;51319;52.162;5.302;2022-09-01T05:09:08;5.65;;;3.90;;
43998;SDS011;51319;52.162;5.302;2022-09-01T05:11:37;9.95;;;4.32;;
43998;SDS011;51319;52.162;5.302;2022-09-01T05:14:04;8.68;;;3.40;;
43998;SDS011;51319;52.162;5.302;2022-09-01T05:16:32;4.60;;;3.25;;
43998;SDS011;51319;52.162;5.302;2022-09-01T05:19:00;5.90;;;3.30;;
43998;SDS011;51319;52.162;5.302;2022-09-01T05:21:27;4.15;;;3.45;;
43998;SDS011;51319;52.162;5.302;2022-09-01T05:23:55;9.75;;;3.78;;
43998;SDS011;51319;52.162;5.302;2022-09-01T05:26:29;5.00;;;3.28;;
43998;SDS011;51319;52.162;5.302;2022-09-01T05:29:00;9.32;;;3.10;;
43998;SDS011;51319;52.162;5.302;2022-09-01T05:31:29;7.30;;;3.28;;
43998;SDS011;51319;52.162;5.302;2022-09-01T05:33:59;6.07;;;2.83;;
43998;SDS011;51319;52.162;5.302;2022-09-01T05:36:27;10.13;;;3.10;;
43998;SDS011;51319;52.162;5.302;2022-09-01T05:38:58;7.28;;;3.25;;
43998;SDS011;51319;52.162;5.302;2022-09-01T05:41:26;4.18;;;2.97;;
43998;SDS011;51319;52.162;5.302;2022-09-01T05:43:53;10.50;;;2.97;;
43998;SDS011;51319;52.162;5.302;2022-09-01T05:46:25;7.35;;;2.83;;
43998;SDS011;51319;52.162;5.302;2022-09-01T05:48:53;5.15;;;3.30;;
43998;SDS011;51319;52.162;5.302;2022-09-01T05:51:21;4.65;;;2.75;;
43998;SDS011;51319;52.162;5.302;2022-09-01T05:54:09;3.05;;;2.38;;
43998;SDS011;51319;52.162;5.302;2022-09-01T05:56:36;5.72;;;2.55;;
43998;SDS011;51319;52.162;5.302;2022-09-01T05:59:09;3.95;;;2.40;;
43998;SDS011;51319;52.162;5.302;2022-09-01T06:01:52;7.65;;;2.45;;
43998;SDS011;51319;52.162;5.302;2022-09-01T06:04:19;10.55;;;2.70;;
43998;SDS011;51319;52.162;5.302;2022-09-01T06:06:47;5.18;;;2.58;;
43998;SDS011;51319;52.162;5.302;2022-09-01T06:09:37;8.73;;;2.75;;
43998;SDS011;51319;52.162;5.302;2022-09-01T06:12:04;6.30;;;2.65;;
43998;SDS011;51319;52.162;5.302;2022-09-01T06:14:31;6.90;;;3.08;;
43998;SDS011;51319;52.162;5.302;2022-09-01T06:16:57;6.32;;;2.95;;
43998;SDS011;51319;52.162;5.302;2022-09-01T06:19:24;10.82;;;2.97;;
43998;SDS011;51319;52.162;5.302;2022-09-01T06:21:51;5.78;;;2.33;;
43998;SDS011;51319;52.162;5.302;2022-09-01T06:24:17;7.72;;;3.15;;
43998;SDS011;51319;52.162;5.302;2022-09-01T06:26:46;9.50;;;2.90;;
43998;SDS011;51319;52.162;5.302;2022-09-01T06:29:12;4.13;;;2.35;;
43998;SDS011;51319;52.162;5.302;2022-09-01T06:31:40;5.95;;;2.40;;
43998;SDS011;51319;52.162;5.302;2022-09-01T06:34:08;6.97;;;2.38;;
43998;SDS011;51319;52.162;5.302;2022-09-01T06:36:38;5.50;;;2.07;;
43998;SDS011;51319;52.162;5.302;2022-09-01T06:39:06;8.00;;;2.60;;
43998;SDS011;51319;52.162;5.302;2022-09-01T06:41:33;3.75;;;2.28;;
43998;SDS011;51319;52.162;5.302;2022-09-01T06:44:02;7.13;;;2.45;;
43998;SDS011;51319;52.162;5.302;2022-09-01T06:46:29;6.63;;;2.20;;
43998;SDS011;51319;52.162;5.302;2022-09-01T06:48:55;6.75;;;2.53;;
43998;SDS011;51319;52.162;5.302;2022-09-01T06:51:24;4.88;;;1.75;;
43998;SDS011;51319;52.162;5.302;2022-09-01T06:53:54;3.38;;;1.70;;
43998;SDS011;51319;52.162;5.302;2022-09-01T06:56:25;8.23;;;1.67;;
43998;SDS011;51319;52.162;5.302;2022-09-01T06:58:57;1.85;;;1.08;;
43998;SDS011;51319;52.162;5.302;2022-09-01T07:01:24;4.43;;;1.60;;
43998;SDS011;51319;52.162;5.302;2022-09-01T07:03:52;5.97;;;1.80;;
43998;SDS011;51319;52.162;5.302;2022-09-01T07:09:12;6.68;;;1.67;;
43998;SDS011;51319;52.162;5.302;2022-09-01T07:11:59;7.32;;;2.10;;
43998;SDS011;51319;52.162;5.302;2022-09-01T07:14:45;8.70;;;2.30;;
43998;SDS011;51319;52.162;5.302;2022-09-01T07:17:33;5.55;;;1.50;;
43998;SDS011;51319;52.162;5.302;2022-09-01T07:19:59;4.10;;;1.10;;
43998;SDS011;51319;52.162;5.302;2022-09-01T07:22:46;8.95;;;1.50;;
43998;SDS011;51319;52.162;5.302;2022-09-01T07:25:29;5.80;;;1.30;;
43998;SDS011;51319;52.162;5.302;2022-09-01T07:28:17;3.53;;;1.38;;
43998;SDS011;51319;52.162;5.302;2022-09-01T07:30:46;6.03;;;1.30;;
43998;SDS011;51319;52.162;5.302;2022-09-01T07:33:14;4.75;;;1.40;;
43998;SDS011;51319;52.162;5.302;2022-09-01T07:36:05;5.80;;;1.15;;
43998;SDS011;51319;52.162;5.302;2022-09-01T07:38:53;4.35;;;1.27;;
43998;SDS011;51319;52.162;5.302;2022-09-01T07:41:39;3.75;;;1.13;;
43998;SDS011;51319;52.162;5.302;2022-09-01T07:44:26;4.47;;;0.93;;
43998;SDS011;51319;52.162;5.302;2022-09-01T07:46:53;4.82;;;1.20;;
43998;SDS011;51319;52.162;5.302;2022-09-01T07:49:39;2.97;;;1.23;;
43998;SDS011;51319;52.162;5.302;2022-09-01T07:52:25;7.70;;;1.50;;
43998;SDS011;51319;52.162;5.302;2022-09-01T07:54:52;5.25;;;1.00;;
43998;SDS011;51319;52.162;5.302;2022-09-01T07:57:19;3.55;;;0.88;;
43998;SDS011;51319;52.162;5.302;2022-09-01T07:59:45;3.22;;;1.08;;
43998;SDS011;51319;52.162;5.302;2022-09-01T08:02:12;4.00;;;0.80;;
43998;SDS011;51319;52.162;5.302;2022-09-01T08:04:38;5.45;;;1.40;;
43998;SDS011;51319;52.162;5.302;2022-09-01T08:07:04;6.25;;;1.00;;
43998;SDS011;51319;52.162;5.302;2022-09-01T08:09:30;1.70;;;1.00;;
43998;SDS011;51319;52.162;5.302;2022-09-01T08:12:08;4.80;;;1.15;;
43998;SDS011;51319;52.162;5.302;2022-09-01T08:14:34;6.45;;;1.20;;
43998;SDS011;51319;52.162;5.302;2022-09-01T08:17:01;3.97;;;1.02;;
43998;SDS011;51319;52.162;5.302;2022-09-01T08:19:42;5.03;;;0.90;;
43998;SDS011;51319;52.162;5.302;2022-09-01T08:22:09;2.45;;;0.80;;
43998;SDS011;51319;52.162;5.302;2022-09-01T08:24:35;5.40;;;1.15;;
43998;SDS011;51319;52.162;5.302;2022-09-01T08:27:03;4.03;;;0.95;;
43998;SDS011;51319;52.162;5.302;2022-09-01T08:29:29;3.17;;;1.02;;
43998;SDS011;51319;52.162;5.302;2022-09-01T08:31:58;7.32;;;0.90;;
43998;SDS011;51319;52.162;5.302;2022-09-01T08:34:25;5.20;;;0.93;;
43998;SDS011;51319;52.162;5.302;2022-09-01T08:36:51;5.45;;;1.20;;
43998;SDS011;51319;52.162;5.302;2022-09-01T08:39:18;4.05;;;0.93;;
43998;SDS011;51319;52.162;5.302;2022-09-01T08:42:07;3.72;;;0.95;;
43998;SDS011;51319;52.162;5.302;2022-09-01T08:47:17;7.00;;;0.88;;
43998;SDS011;51319;52.162;5.302;2022-09-01T08:49:55;3.13;;;1.10;;
43998;SDS011;51319;52.162;5.302;2022-09-01T08:55:09;3.67;;;0.80;;
43998;SDS011;51319;52.162;5.302;2022-09-01T08:57:56;2.33;;;0.73;;
43998;SDS011;51319;52.162;5.302;2022-09-01T09:00:30;2.40;;;0.90;;
43998;SDS011;51319;52.162;5.302;2022-09-01T09:08:32;2.90;;;1.05;;
43998;SDS011;51319;52.162;5.302;2022-09-01T09:11:04;1.33;;;0.70;;
43998;SDS011;51319;52.162;5.302;2022-09-01T09:16:39;4.65;;;0.88;;
43998;SDS011;51319;52.162;5.302;2022-09-01T09:19:10;0.90;;;0.52;;
43998;SDS011;51319;52.162;5.302;2022-09-01T09:21:47;2.53;;;0.95;;
43998;SDS011;51319;52.162;5.302;2022-09-01T09:24:22;3.30;;;0.88;;
43998;SDS011;51319;52.162;5.302;2022-09-01T09:27:04;1.02;;;0.65;;
43998;SDS011;51319;52.162;5.302;2022-09-01T09:29:32;6.45;;;0.60;;
43998;SDS011;51319;52.162;5.302;2022-09-01T09:32:03;3.38;;;0.70;;
43998;SDS011;51319;52.162;5.302;2022-09-01T09:34:49;4.50;;;0.50;;
43998;SDS011;51319;52.162;5.302;2022-09-01T09:42:36;1.25;;;0.35;;
43998;SDS011;51319;52.162;5.302;2022-09-01T09:45:21;2.00;;;0.60;;
43998;SDS011;51319;52.162;5.302;2022-09-01T09:47:50;2.72;;;0.60;;
43998;SDS011;51319;52.162;5.302;2022-09-01T09:50:23;4.45;;;0.68;;
43998;SDS011;51319;52.162;5.302;2022-09-01T09:58:29;0.80;;;0.52;;
43998;SDS011;51319;52.162;5.302;2022-09-01T10:01:02;2.58;;;0.50;;
43998;SDS011;51319;52.162;5.302;2022-09-01T10:03:33;6.70;;;1.55;;
43998;SDS011;51319;52.162;5.302;2022-09-01T10:06:31;4.57;;;0.47;;
43998;SDS011;51319;52.162;5.302;2022-09-01T10:09:04;1.85;;;0.57;;
43998;SDS011;51319;52.162;5.302;2022-09-01T10:11:41;2.05;;;0.50;;
43998;SDS011;51319;52.162;5.302;2022-09-01T10:14:21;2.90;;;0.50;;
43998;SDS011;51319;52.162;5.302;2022-09-01T10:17:17;1.63;;;0.60;;
43998;SDS011;51319;52.162;5.302;2022-09-01T10:19:56;2.70;;;0.43;;
43998;SDS011;51319;52.162;5.302;2022-09-01T10:22:30;3.65;;;0.50;;
43998;SDS011;51319;52.162;5.302;2022-09-01T10:24:59;0.80;;;0.50;;
43998;SDS011;51319;52.162;5.302;2022-09-01T10:27:28;0.90;;;0.40;;
43998;SDS011;51319;52.162;5.302;2022-09-01T10:30:03;2.70;;;0.70;;
43998;SDS011;51319;52.162;5.302;2022-09-01T10:32:47;2.15;;;0.70;;
43998;SDS011;51319;52.162;5.302;2022-09-01T10:35:33;2.88;;;0.55;;
43998;SDS011;51319;52.162;5.302;2022-09-01T10:38:09;3.05;;;0.50;;
43998;SDS011;51319;52.162;5.302;2022-09-01T10:40:51;1.25;;;0.43;;
43998;SDS011;51319;52.162;5.302;2022-09-01T10:43:33;3.50;;;0.57;;
43998;SDS011;51319;52.162;5.302;2022-09-01T10:46:07;3.03;;;0.50;;
43998;SDS011;51319;52.162;5.302;2022-09-01T10:48:41;2.78;;;0.75;;
43998;SDS011;51319;52.162;5.302;2022-09-01T10:53:55;1.63;;;0.70;;
43998;SDS011;51319;52.162;5.302;2022-09-01T10:56:46;3.35;;;0.68;;
43998;SDS011;51319;52.162;5.302;2022-09-01T10:59:27;5.43;;;0.68;;
43998;SDS011;51319;52.162;5.302;2022-09-01T11:15:44;1.95;;;0.50;;
43998;SDS011;51319;52.162;5.302;2022-09-01T11:20:44;3.72;;;0.52;;
43998;SDS011;51319;52.162;5.302;2022-09-01T11:23:21;2.88;;;0.50;;
43998;SDS011;51319;52.162;5.302;2022-09-01T11:26:02;2.22;;;0.63;;
43998;SDS011;51319;52.162;5.302;2022-09-01T11:28:57;3.42;;;0.60;;
43998;SDS011;51319;52.162;5.302;2022-09-01T11:31:28;0.82;;;0.38;;
43998;SDS011;51319;52.162;5.302;2022-09-01T11:34:10;2.53;;;0.40;;
43998;SDS011;51319;52.162;5.302;2022-09-01T11:39:29;3.15;;;0.70;;
43998;SDS011;51319;52.162;5.302;2022-09-01T11:42:11;4.60;;;0.60;;
43998;SDS011;51319;52.162;5.302;2022-09-01T11:44:54;1.08;;;0.40;;
43998;SDS011;51319;52.162;5.302;2022-09-01T11:47:24;0.98;;;0.60;;
43998;SDS011;51319;52.162;5.302;2022-09-01T11:50:22;2.88;;;0.57;;
43998;SDS011;51319;52.162;5.302;2022-09-01T11:53:00;3.53;;;0.40;;
43998;SDS011;51319;52.162;5.302;2022-09-01T11:58:27;1.15;;;0.63;;
43998;SDS011;51319;52.162;5.302;2022-09-01T12:00:56;3.70;;;0.50;;
43998;SDS011;51319;52.162;5.302;2022-09-01T12:03:36;4.00;;;0.60;;
43998;SDS011;51319;52.162;5.302;2022-09-01T12:06:06;0.38;;;0.30;;
43998;SDS011;51319;52.162;5.302;2022-09-01T12:08:40;3.08;;;0.40;;
43998;SDS011;51319;52.162;5.302;2022-09-01T12:11:20;6.38;;;0.45;;
43998;SDS011;51319;52.162;5.302;2022-09-01T12:13:57;1.80;;;0.40;;
43998;SDS011;51319;52.162;5.302;2022-09-01T12:16:26;3.65;;;0.52;;
43998;SDS011;51319;52.162;5.302;2022-09-01T12:18:55;2.08;;;0.77;;
43998;SDS011;51319;52.162;5.302;2022-09-01T12:21:26;5.55;;;0.52;;
43998;SDS011;51319;52.162;5.302;2022-09-01T12:23:53;2.15;;;0.60;;
43998;SDS011;51319;52.162;5.302;2022-09-01T12:26:34;2.30;;;0.50;;
43998;SDS011;51319;52.162;5.302;2022-09-01T12:29:00;1.42;;;0.30;;
43998;SDS011;51319;52.162;5.302;2022-09-01T12:31:27;0.93;;;0.40;;
43998;SDS011;51319;52.162;5.302;2022-09-01T12:33:53;3.13;;;0.30;;
43998;SDS011;51319;52.162;5.302;2022-09-01T12:38:50;2.72;;;0.50;;
43998;SDS011;51319;52.162;5.302;2022-09-01T12:49:42;0.68;;;0.35;;
43998;SDS011;51319;52.162;5.302;2022-09-01T12:57:32;1.98;;;0.50;;
43998;SDS011;51319;52.162;5.302;2022-09-01T13:05:20;5.18;;;0.52;;
43998;SDS011;51319;52.162;5.302;2022-09-01T13:08:05;3.55;;;0.30;;
43998;SDS011;51319;52.162;5.302;2022-09-01T13:10:46;3.63;;;0.60;;
43998;SDS011;51319;52.162;5.302;2022-09-01T13:13:18;1.77;;;0.40;;
43998;SDS011;51319;52.162;5.302;2022-09-01T13:15:47;2.67;;;0.70;;
43998;SDS011;51319;52.162;5.302;2022-09-01T13:20:44;0.70;;;0.40;;
43998;SDS011;51319;52.162;5.302;2022-09-01T13:23:10;6.80;;;0.77;;
43998;SDS011;51319;52.162;5.302;2022-09-01T13:25:37;2.28;;;0.52;;
43998;SDS011;51319;52.162;5.302;2022-09-01T13:28:09;2.30;;;0.57;;
43998;SDS011;51319;52.162;5.302;2022-09-01T13:30:36;3.40;;;0.70;;
43998;SDS011;51319;52.162;5.302;2022-09-01T13:33:03;4.07;;;0.35;;
43998;SDS011;51319;52.162;5.302;2022-09-01T13:35:46;2.95;;;0.60;;
43998;SDS011;51319;52.162;5.302;2022-09-01T13:38:13;4.65;;;0.57;;
43998;SDS011;51319;52.162;5.302;2022-09-01T13:40:41;1.13;;;0.60;;
43998;SDS011;51319;52.162;5.302;2022-09-01T13:43:10;3.10;;;1.95;;
43998;SDS011;51319;52.162;5.302;2022-09-01T13:45:36;4.40;;;0.73;;
43998;SDS011;51319;52.162;5.302;2022-09-01T13:48:06;7.57;;;0.97;;
43998;SDS011;51319;52.162;5.302;2022-09-01T13:50:53;3.13;;;0.47;;
43998;SDS011;51319;52.162;5.302;2022-09-01T13:53:39;6.22;;;0.50;;
43998;SDS011;51319;52.162;5.302;2022-09-01T13:56:06;2.97;;;0.50;;
43998;SDS011;51319;52.162;5.302;2022-09-01T13:58:32;2.28;;;0.40;;
43998;SDS011;51319;52.162;5.302;2022-09-01T14:00:58;1.75;;;0.60;;
43998;SDS011;51319;52.162;5.302;2022-09-01T14:03:25;8.93;;;0.77;;
43998;SDS011;51319;52.162;5.302;2022-09-01T14:05:52;0.75;;;0.50;;
43998;SDS011;51319;52.162;5.302;2022-09-01T14:08:19;2.53;;;0.30;;
43998;SDS011;51319;52.162;5.302;2022-09-01T14:10:48;4.40;;;0.90;;
43998;SDS011;51319;52.162;5.302;2022-09-01T14:13:16;1.67;;;0.55;;
43998;SDS011;51319;52.162;5.302;2022-09-01T14:15:44;0.50;;;0.40;;
43998;SDS011;51319;52.162;5.302;2022-09-01T14:18:14;4.13;;;0.63;;
43998;SDS011;51319;52.162;5.302;2022-09-01T14:20:42;3.08;;;0.38;;
43998;SDS011;51319;52.162;5.302;2022-09-01T14:23:11;0.67;;;0.50;;
43998;SDS011;51319;52.162;5.302;2022-09-01T14:25:42;2.25;;;0.50;;
43998;SDS011;51319;52.162;5.302;2022-09-01T14:28:11;1.15;;;0.30;;
43998;SDS011;51319;52.162;5.302;2022-09-01T14:30:39;4.65;;;0.57;;
43998;SDS011;51319;52.162;5.302;2022-09-01T14:33:07;1.30;;;0.60;;
43998;SDS011;51319;52.162;5.302;2022-09-01T14:35:36;2.75;;;0.40;;
43998;SDS011;51319;52.162;5.302;2022-09-01T14:38:08;2.90;;;0.70;;
43998;SDS011;51319;52.162;5.302;2022-09-01T14:40:37;5.78;;;0.50;;
43998;SDS011;51319;52.162;5.302;2022-09-01T14:43:05;3.45;;;0.60;;
43998;SDS011;51319;52.162;5.302;2022-09-01T14:45:34;1.88;;;0.50;;
43998;SDS011;51319;52.162;5.302;2022-09-01T14:48:02;4.55;;;0.65;;
43998;SDS011;51319;52.162;5.302;2022-09-01T14:50:29;7.88;;;0.50;;
43998;SDS011;51319;52.162;5.302;2022-09-01T14:52:57;0.85;;;0.40;;
43998;SDS011;51319;52.162;5.302;2022-09-01T14:55:25;8.13;;;1.00;;
43998;SDS011;51319;52.162;5.302;2022-09-01T14:57:55;2.38;;;0.65;;
43998;SDS011;51319;52.162;5.302;2022-09-01T15:00:22;1.63;;;0.70;;
43998;SDS011;51319;52.162;5.302;2022-09-01T15:02:52;3.58;;;0.50;;
43998;SDS011;51319;52.162;5.302;2022-09-01T15:05:19;3.05;;;0.63;;
43998;SDS011;51319;52.162;5.302;2022-09-01T15:07:47;1.70;;;0.60;;
43998;SDS011;51319;52.162;5.302;2022-09-01T15:10:15;1.13;;;0.50;;
43998;SDS011;51319;52.162;5.302;2022-09-01T15:12:51;2.05;;;0.70;;
43998;SDS011;51319;52.162;5.302;2022-09-01T15:15:22;1.67;;;0.63;;
43998;SDS011;51319;52.162;5.302;2022-09-01T15:17:49;5.28;;;0.77;;
43998;SDS011;51319;52.162;5.302;2022-09-01T15:20:15;2.47;;;0.40;;
43998;SDS011;51319;52.162;5.302;2022-09-01T15:23:00;5.10;;;0.70;;
43998;SDS011;51319;52.162;5.302;2022-09-01T15:25:26;3.17;;;0.50;;
43998;SDS011;51319;52.162;5.302;2022-09-01T15:27:53;0.75;;;0.52;;
43998;SDS011;51319;52.162;5.302;2022-09-01T15:30:19;1.88;;;0.63;;
43998;SDS011;51319;52.162;5.302;2022-09-01T15:32:47;0.77;;;0.50;;
43998;SDS011;51319;52.162;5.302;2022-09-01T15:35:15;3.47;;;0.60;;
43998;SDS011;51319;52.162;5.302;2022-09-01T15:37:44;2.30;;;0.75;;
43998;SDS011;51319;52.162;5.302;2022-09-01T15:40:12;2.38;;;0.60;;
43998;SDS011;51319;52.162;5.302;2022-09-01T15:42:39;2.40;;;0.82;;
43998;SDS011;51319;52.162;5.302;2022-09-01T15:45:06;1.38;;;0.52;;
43998;SDS011;51319;52.162;5.302;2022-09-01T15:47:35;1.95;;;0.50;;
43998;SDS011;51319;52.162;5.302;2022-09-01T15:50:04;2.50;;;0.55;;
43998;SDS011;51319;52.162;5.302;2022-09-01T15:55:15;6.60;;;1.10;;
43998;SDS011;51319;52.162;5.302;2022-09-01T15:57:43;1.58;;;0.60;;
43998;SDS011;51319;52.162;5.302;2022-09-01T16:00:10;1.88;;;0.50;;
43998;SDS011;51319;52.162;5.302;2022-09-01T16:02:37;3.75;;;0.75;;
43998;SDS011;51319;52.162;5.302;2022-09-01T16:05:03;5.20;;;0.70;;
43998;SDS011;51319;52.162;5.302;2022-09-01T16:07:30;4.32;;;0.98;;
43998;SDS011;51319;52.162;5.302;2022-09-01T16:09:56;1.90;;;0.70;;
43998;SDS011;51319;52.162;5.302;2022-09-01T16:12:26;2.80;;;0.80;;
43998;SDS011;51319;52.162;5.302;2022-09-01T16:14:54;3.28;;;0.80;;
43998;SDS011;51319;52.162;5.302;2022-09-01T16:17:33;2.25;;;0.90;;
43998;SDS011;51319;52.162;5.302;2022-09-01T16:20:19;3.53;;;0.80;;
43998;SDS011;51319;52.162;5.302;2022-09-01T16:23:23;3.80;;;0.43;;
43998;SDS011;51319;52.162;5.302;2022-09-01T16:25:43;3.63;;;0.80;;
43998;SDS011;51319;52.162;5.302;2022-09-01T16:31:13;2.90;;;0.50;;
43998;SDS011;51319;52.162;5.302;2022-09-01T16:33:49;2.17;;;0.70;;
43998;SDS011;51319;52.162;5.302;2022-09-01T16:36:28;3.90;;;0.50;;
43998;SDS011;51319;52.162;5.302;2022-09-01T16:39:33;3.40;;;0.88;;
43998;SDS011;51319;52.162;5.302;2022-09-01T16:48:02;3.42;;;0.77;;
43998;SDS011;51319;52.162;5.302;2022-09-01T16:56:23;5.18;;;1.67;;
43998;SDS011;51319;52.162;5.302;2022-09-01T17:01:58;3.38;;;0.68;;
43998;SDS011;51319;52.162;5.302;2022-09-01T17:04:44;2.50;;;1.27;;